Time;durP1;ratioP1;P1;durP2;ratioP2;P2;SDS_P1;SDS_P2;PMS_P1;PMS_P2;Temp;Humidity;BMP_temperature;BMP_pressure;BME280_temperature;BME280_humidity;BME280_pressure;Samples;Min_cycle;Max_cycle;Signal;HPM_P1;HPM_P2
2023/05/10 00:01:40;;;;;;;11.55;8.32;;;15.10;66.00;;;;;;4943367;28;20071;-84
2023/05/10 00:04:06;;;;;;;15.43;7.88;;;15.10;66.00;;;;;;4943488;28;20035;-87
2023/05/10 00:06:32;;;;;;;12.02;7.75;;;15.10;66.10;;;;;;4949092;28;20284;-87
2023/05/10 00:08:58;;;;;;;14.82;7.10;;;15.10;66.10;;;;;;4931021;28;20031;-88
2023/05/10 00:11:24;;;;;;;13.75;8.57;;;15.10;66.10;;;;;;4941335;28;20047;-88
2023/05/10 00:13:50;;;;;;;13.95;8.05;;;15.10;66.10;;;;;;4943475;28;20323;-88
2023/05/10 00:16:16;;;;;;;13.80;7.80;;;15.10;66.10;;;;;;4957791;28;20042;-89
2023/05/10 00:18:42;;;;;;;12.85;8.27;;;15.10;66.10;;;;;;4936085;28;20496;-90
2023/05/10 00:21:08;;;;;;;15.13;8.73;;;15.10;66.20;;;;;;4947072;28;20234;-88
2023/05/10 00:23:34;;;;;;;19.27;8.88;;;15.10;66.20;;;;;;4942191;28;20511;-88
2023/05/10 00:26:00;;;;;;;15.35;8.55;;;15.10;66.20;;;;;;4946141;28;20387;-88
2023/05/10 00:28:28;;;;;;;15.30;8.80;;;15.10;66.20;;;;;;4943429;28;20028;-88
2023/05/10 00:30:54;;;;;;;13.32;8.77;;;15.10;66.30;;;;;;4945158;28;20083;-88
2023/05/10 00:33:20;;;;;;;12.18;8.00;;;15.10;66.30;;;;;;4945178;28;20229;-87
2023/05/10 00:35:47;;;;;;;9.45;7.18;;;15.10;66.30;;;;;;4946236;28;20129;-87
2023/05/10 00:38:14;;;;;;;12.57;8.27;;;15.20;66.50;;;;;;4943151;28;20107;-86
2023/05/10 00:40:41;;;;;;;12.73;8.60;;;15.10;66.40;;;;;;4944000;28;20058;-87
2023/05/10 00:43:13;;;;;;;;;;;15.10;66.40;;;;;;4941637;28;20491;-88
2023/05/10 00:45:41;;;;;;;15.23;8.45;;;15.10;66.30;;;;;;4948287;28;20255;-89
2023/05/10 00:48:07;;;;;;;17.95;8.95;;;15.10;66.20;;;;;;4923176;28;20083;-88
2023/05/10 00:50:33;;;;;;;12.35;8.57;;;15.10;66.20;;;;;;4940180;28;20073;-88
2023/05/10 00:53:00;;;;;;;13.80;9.25;;;15.10;66.30;;;;;;4944184;28;20223;-89
2023/05/10 00:55:26;;;;;;;16.02;9.82;;;15.10;66.40;;;;;;4946156;28;20372;-87
2023/05/10 00:57:53;;;;;;;15.35;9.90;;;15.10;66.40;;;;;;4937436;28;20071;-88
2023/05/10 01:00:19;;;;;;;13.48;8.82;;;15.20;66.60;;;;;;4937206;28;20093;-89
2023/05/10 01:02:46;;;;;;;12.00;7.70;;;15.20;66.60;;;;;;4945462;28;20039;-88
2023/05/10 01:05:12;;;;;;;12.05;8.30;;;15.10;66.40;;;;;;4942976;28;20219;-87
2023/05/10 01:07:39;;;;;;;18.17;10.13;;;15.10;66.50;;;;;;4951029;28;20042;-87
2023/05/10 01:10:08;;;;;;;11.93;9.27;;;15.20;66.60;;;;;;4950851;28;20039;-88
2023/05/10 01:12:42;;;;;;;12.93;8.85;;;15.10;66.50;;;;;;4943119;28;20031;-85
2023/05/10 01:15:10;;;;;;;12.68;9.18;;;15.10;67.00;;;;;;4940119;28;20047;-85
2023/05/10 01:17:39;;;;;;;12.38;9.05;;;15.20;66.60;;;;;;4943172;28;20055;-85
2023/05/10 01:20:09;;;;;;;11.57;8.77;;;15.20;66.60;;;;;;4939193;28;20038;-85
2023/05/10 01:23:14;;;;;;;12.68;9.30;;;15.20;66.60;;;;;;4937568;28;20077;-85
2023/05/10 01:26:07;;;;;;;10.00;8.02;;;15.20;66.70;;;;;;4943569;28;20043;-85
2023/05/10 01:28:50;;;;;;;13.00;9.02;;;15.20;66.60;;;;;;4938353;28;20023;-83
2023/05/10 01:31:30;;;;;;;;;;;15.20;66.50;;;;;;4947905;28;20685;-84
2023/05/10 01:34:08;;;;;;;11.23;7.88;;;15.20;66.40;;;;;;4948111;28;19980;-91
2023/05/10 01:36:45;;;;;;;13.18;8.77;;;15.20;66.40;;;;;;4953654;28;20047;-88
2023/05/10 01:39:24;;;;;;;11.90;8.30;;;15.20;66.40;;;;;;4943497;28;20031;-87
2023/05/10 01:42:26;;;;;;;9.65;8.10;;;15.20;66.50;;;;;;4945671;28;20146;-89
2023/05/10 01:44:56;;;;;;;13.88;9.07;;;15.20;66.60;;;;;;4929965;29;20031;-88
2023/05/10 01:47:29;;;;;;;11.60;8.95;;;15.20;66.50;;;;;;4949498;28;20082;-89
2023/05/10 01:49:58;;;;;;;11.20;7.93;;;15.20;66.60;;;;;;4950922;28;20062;-89
2023/05/10 01:52:30;;;;;;;14.05;8.25;;;15.10;66.40;;;;;;4945471;28;20518;-91
2023/05/10 01:55:02;;;;;;;11.95;8.35;;;15.10;66.40;;;;;;4950797;28;20407;-90
2023/05/10 01:57:33;;;;;;;12.20;7.88;;;15.10;66.50;;;;;;4948103;28;20850;-90
2023/05/10 02:00:03;;;;;;;10.52;7.15;;;15.10;66.50;;;;;;4950769;28;20035;-90
2023/05/10 02:02:45;;;;;;;14.40;8.13;;;15.10;66.50;;;;;;4941022;28;20106;-88
2023/05/10 02:05:13;;;;;;;13.02;7.45;;;15.10;66.50;;;;;;4950172;28;20031;-88
2023/05/10 02:07:39;;;;;;;10.35;6.97;;;15.10;66.50;;;;;;4950810;28;20043;-88
2023/05/10 02:10:09;;;;;;;10.73;7.07;;;15.10;66.50;;;;;;4950049;28;20031;-88
2023/05/10 02:12:37;;;;;;;12.95;7.32;;;15.10;66.60;;;;;;4946781;29;20043;-86
2023/05/10 02:15:06;;;;;;;11.02;7.20;;;15.10;66.60;;;;;;4945537;28;20034;-88
2023/05/10 02:17:34;;;;;;;10.77;8.43;;;15.10;66.60;;;;;;4948079;29;20549;-88
2023/05/10 02:20:01;;;;;;;12.23;7.50;;;15.10;66.70;;;;;;4961071;28;20202;-88
2023/05/10 02:22:28;;;;;;;17.30;9.93;;;15.10;67.20;;;;;;4973612;28;20078;-86
2023/05/10 02:24:58;;;;;;;12.15;7.65;;;15.00;66.50;;;;;;4966767;28;20039;-87
2023/05/10 02:27:27;;;;;;;11.98;8.05;;;15.10;66.80;;;;;;4968937;29;20115;-88
2023/05/10 02:29:54;;;;;;;11.85;9.63;;;15.00;66.60;;;;;;4969657;28;20055;-86
2023/05/10 02:32:24;;;;;;;12.38;8.68;;;15.00;66.60;;;;;;4957821;28;20415;-88
2023/05/10 02:34:51;;;;;;;9.35;7.18;;;15.10;66.80;;;;;;4948011;29;20031;-87
2023/05/10 02:37:20;;;;;;;16.42;8.95;;;15.00;66.70;;;;;;4948132;29;20068;-88
2023/05/10 02:39:48;;;;;;;9.02;6.53;;;15.00;66.70;;;;;;4946571;28;20106;-88
2023/05/10 02:42:17;;;;;;;12.18;8.02;;;15.00;66.70;;;;;;4949774;28;20035;-87
2023/05/10 02:44:47;;;;;;;11.10;7.15;;;15.00;66.70;;;;;;4947004;28;20039;-89
2023/05/10 02:47:15;;;;;;;10.57;7.82;;;15.00;66.70;;;;;;4933893;28;20191;-89
2023/05/10 02:49:41;;;;;;;11.52;7.70;;;15.00;66.80;;;;;;4942033;28;20063;-88
2023/05/10 02:52:11;;;;;;;11.60;7.28;;;15.00;66.80;;;;;;4951145;28;20387;-86
2023/05/10 02:54:45;;;;;;;11.85;7.10;;;15.00;66.80;;;;;;4949835;28;20391;-91
2023/05/10 02:57:18;;;;;;;12.15;7.10;;;15.00;66.80;;;;;;4949128;28;20503;-84
2023/05/10 02:59:44;;;;;;;13.85;7.72;;;15.00;66.80;;;;;;4933673;28;20411;-91
2023/05/10 03:02:12;;;;;;;11.25;6.50;;;15.00;66.80;;;;;;4950408;28;20045;-88
2023/05/10 03:04:38;;;;;;;14.10;8.00;;;15.00;66.80;;;;;;4946738;29;20134;-86
2023/05/10 03:07:04;;;;;;;11.07;6.60;;;15.00;66.80;;;;;;4947842;29;20130;-86
2023/05/10 03:09:32;;;;;;;13.80;7.40;;;15.00;66.80;;;;;;4942527;28;20049;-86
2023/05/10 03:12:06;;;;;;;9.95;6.32;;;15.00;66.90;;;;;;4947987;28;20230;-86
2023/05/10 03:14:59;;;;;;;15.23;8.50;;;15.00;66.90;;;;;;4942494;28;20754;-86
2023/05/10 03:17:41;;;;;;;14.60;7.80;;;14.90;66.70;;;;;;4920325;29;20044;-86
2023/05/10 03:20:14;;;;;;;13.93;7.43;;;14.90;66.70;;;;;;4947554;28;20027;-85
2023/05/10 03:22:51;;;;;;;11.80;8.10;;;15.00;66.90;;;;;;4946745;29;20035;-85
2023/05/10 03:25:20;;;;;;;12.77;6.07;;;15.00;66.90;;;;;;4937369;28;20050;-85
2023/05/10 03:27:47;;;;;;;11.82;5.97;;;14.90;66.70;;;;;;4964576;28;20117;-85
2023/05/10 03:30:13;;;;;;;16.65;7.72;;;14.90;66.70;;;;;;4945742;28;20143;-85
2023/05/10 03:32:41;;;;;;;13.32;6.72;;;14.90;66.80;;;;;;4946726;28;20035;-85
2023/05/10 03:35:08;;;;;;;13.35;6.30;;;14.90;66.90;;;;;;4942292;29;20555;-87
2023/05/10 03:37:35;;;;;;;9.88;6.07;;;14.90;66.90;;;;;;4960655;28;20051;-88
2023/05/10 03:40:02;;;;;;;14.05;6.10;;;14.80;66.70;;;;;;4938223;28;20104;-86
2023/05/10 03:42:30;;;;;;;13.38;6.45;;;14.90;67.00;;;;;;4947497;28;20039;-85
2023/05/10 03:44:56;;;;;;;14.20;6.55;;;14.80;66.80;;;;;;4939365;28;20078;-87
2023/05/10 03:47:22;;;;;;;17.90;7.78;;;14.80;66.90;;;;;;4944610;28;20162;-85
2023/05/10 03:49:48;;;;;;;15.52;6.63;;;14.80;66.90;;;;;;4946392;28;20121;-89
2023/05/10 03:52:14;;;;;;;16.25;6.47;;;14.80;66.90;;;;;;4949061;28;20190;-88
2023/05/10 03:54:39;;;;;;;14.55;7.40;;;14.70;66.70;;;;;;4946849;28;20062;-87
2023/05/10 03:57:05;;;;;;;12.95;7.55;;;14.80;67.00;;;;;;4946314;29;20043;-87
2023/05/10 03:59:32;;;;;;;16.80;7.32;;;14.70;66.90;;;;;;4947133;28;20483;-88
2023/05/10 04:01:58;;;;;;;15.95;7.72;;;14.70;66.90;;;;;;4946263;28;20066;-88
2023/05/10 04:04:24;;;;;;;14.35;8.07;;;14.70;67.00;;;;;;4946647;29;20133;-87
2023/05/10 04:06:50;;;;;;;14.57;6.88;;;14.70;66.90;;;;;;4946963;29;20070;-87
2023/05/10 04:09:16;;;;;;;13.13;6.20;;;14.70;67.00;;;;;;4946822;28;20034;-87
2023/05/10 04:11:43;;;;;;;14.23;6.55;;;14.70;67.00;;;;;;4939631;29;20050;-87
2023/05/10 04:14:09;;;;;;;18.17;7.90;;;14.60;66.90;;;;;;4938592;28;20035;-87
2023/05/10 04:16:35;;;;;;;14.45;6.90;;;14.60;66.90;;;;;;4960756;28;20054;-86
2023/05/10 04:19:01;;;;;;;18.23;8.52;;;14.60;66.90;;;;;;4949301;28;20054;-85
2023/05/10 04:21:26;;;;;;;13.73;6.50;;;14.60;66.90;;;;;;4947697;28;20046;-85
2023/05/10 04:23:52;;;;;;;10.77;6.25;;;14.60;66.90;;;;;;4947734;28;20035;-85
2023/05/10 04:26:18;;;;;;;16.60;6.10;;;14.60;67.00;;;;;;4945199;28;20031;-85
2023/05/10 04:28:44;;;;;;;22.48;9.82;;;14.60;67.00;;;;;;4946884;28;20629;-85
2023/05/10 04:31:10;;;;;;;17.48;7.05;;;14.60;67.00;;;;;;4945965;28;20046;-83
2023/05/10 04:33:37;;;;;;;11.32;6.95;;;14.60;67.00;;;;;;4945044;28;20031;-87
2023/05/10 04:36:03;;;;;;;17.98;8.18;;;14.60;67.10;;;;;;4942654;29;20039;-87
2023/05/10 04:38:29;;;;;;;14.80;7.65;;;14.60;67.10;;;;;;4945632;29;20037;-86
2023/05/10 04:41:07;;;;;;;14.20;7.40;;;14.60;67.10;;;;;;4943686;28;20141;-85
2023/05/10 04:43:33;;;;;;;17.40;8.65;;;14.60;67.70;;;;;;4944312;28;20542;-85
2023/05/10 04:45:59;;;;;;;15.70;7.85;;;14.50;66.90;;;;;;4934038;28;20535;-83
2023/05/10 04:48:25;;;;;;;12.50;8.18;;;14.60;67.40;;;;;;4944518;28;20649;-86
2023/05/10 04:50:52;;;;;;;19.15;8.13;;;14.60;67.10;;;;;;4935613;28;20574;-84
2023/05/10 04:53:18;;;;;;;16.88;8.68;;;14.60;67.10;;;;;;4944159;28;20187;-86
2023/05/10 04:55:43;;;;;;;14.77;8.43;;;14.60;67.10;;;;;;4942193;28;20063;-88
2023/05/10 04:58:09;;;;;;;14.82;8.65;;;14.60;67.10;;;;;;4942027;28;20131;-86
2023/05/10 05:00:35;;;;;;;13.90;8.25;;;14.60;67.10;;;;;;4943376;28;20027;-86
2023/05/10 05:03:01;;;;;;;12.73;8.43;;;14.60;67.10;;;;;;4938577;29;20039;-81
2023/05/10 05:05:27;;;;;;;17.48;9.27;;;14.60;67.10;;;;;;4936983;28;20035;-82
2023/05/10 05:07:53;;;;;;;15.98;8.18;;;14.60;67.00;;;;;;4943325;28;20020;-82
2023/05/10 05:10:19;;;;;;;15.02;8.27;;;14.70;67.10;;;;;;4938115;28;20038;-81
2023/05/10 05:12:45;;;;;;;16.65;9.00;;;14.70;67.10;;;;;;4936465;28;20122;-82
2023/05/10 05:15:11;;;;;;;15.75;9.10;;;14.70;67.10;;;;;;4938540;28;20118;-83
2023/05/10 05:17:37;;;;;;;14.90;9.23;;;14.70;67.00;;;;;;4937749;28;20047;-85
2023/05/10 05:20:04;;;;;;;16.42;9.88;;;14.70;66.90;;;;;;4934088;28;20086;-87
2023/05/10 05:22:30;;;;;;;18.20;9.70;;;14.80;67.10;;;;;;4940516;28;20057;-88
2023/05/10 05:24:57;;;;;;;16.98;8.63;;;14.80;67.00;;;;;;4940550;28;20471;-88
2023/05/10 05:27:26;;;;;;;16.40;7.78;;;14.80;66.90;;;;;;4937329;28;20075;-85
2023/05/10 05:29:53;;;;;;;18.73;9.15;;;14.80;66.90;;;;;;4939826;28;20040;-86
2023/05/10 05:32:20;;;;;;;11.73;7.70;;;14.80;66.80;;;;;;4943620;28;20028;-88
2023/05/10 05:34:46;;;;;;;17.73;8.32;;;14.90;66.90;;;;;;4939941;28;20064;-86
2023/05/10 05:37:16;;;;;;;12.82;7.03;;;14.90;66.80;;;;;;4940939;28;20039;-83
2023/05/10 05:39:43;;;;;;;13.93;8.32;;;15.00;67.00;;;;;;4938407;28;20523;-87
2023/05/10 05:42:09;;;;;;;17.25;7.35;;;15.10;67.00;;;;;;4936382;28;20071;-91
2023/05/10 05:44:36;;;;;;;16.40;7.35;;;15.20;66.90;;;;;;4939889;28;20054;-85
2023/05/10 05:47:02;;;;;;;10.82;6.28;;;15.30;66.80;;;;;;4939127;28;20048;-96
2023/05/10 05:49:28;;;;;;;10.70;6.07;;;15.50;66.90;;;;;;4946456;28;20035;-81
2023/05/10 05:51:54;;;;;;;15.88;5.57;;;15.70;67.00;;;;;;4940245;28;20097;-84
2023/05/10 05:54:20;;;;;;;9.57;4.72;;;16.00;67.70;;;;;;4939524;28;20031;-84
2023/05/10 05:56:46;;;;;;;13.93;5.90;;;16.20;68.00;;;;;;4942534;28;20130;-84
2023/05/10 05:59:12;;;;;;;11.02;4.72;;;16.50;68.50;;;;;;4939195;28;20043;-83
2023/05/10 06:01:38;;;;;;;9.25;4.18;;;16.80;68.80;;;;;;4937096;28;20039;-83
2023/05/10 06:04:03;;;;;;;8.52;5.35;;;17.10;68.90;;;;;;4932553;28;20436;-84
2023/05/10 06:06:29;;;;;;;11.40;4.25;;;17.40;69.00;;;;;;4939475;28;20047;-82
2023/05/10 06:08:55;;;;;;;10.95;5.00;;;17.70;69.20;;;;;;4939935;28;20062;-85
2023/05/10 06:11:21;;;;;;;11.23;5.47;;;17.90;69.20;;;;;;4932670;28;20458;-82
2023/05/10 06:13:47;;;;;;;10.13;3.67;;;18.10;69.30;;;;;;4933272;28;20374;-87
2023/05/10 06:16:13;;;;;;;12.98;4.72;;;18.40;69.50;;;;;;4935821;28;20290;-92
2023/05/10 06:18:39;;;;;;;10.15;4.35;;;18.80;69.70;;;;;;4937178;28;20050;-85
2023/05/10 06:21:05;;;;;;;14.05;5.20;;;19.10;69.60;;;;;;4937145;28;20035;-82
2023/05/10 06:23:31;;;;;;;9.35;3.80;;;19.50;69.50;;;;;;4936074;28;20485;-82
2023/05/10 06:25:57;;;;;;;9.63;3.63;;;19.70;68.90;;;;;;4938287;28;20148;-81
2023/05/10 06:28:23;;;;;;;13.05;4.20;;;19.90;68.70;;;;;;4935528;28;20035;-82
2023/05/10 06:30:49;;;;;;;14.55;3.80;;;19.90;68.30;;;;;;4935904;28;20032;-81
2023/05/10 06:33:15;;;;;;;11.55;3.58;;;19.80;68.10;;;;;;4941462;28;20059;-83
2023/05/10 06:35:41;;;;;;;9.60;3.30;;;19.80;68.00;;;;;;4940786;28;20123;-85
2023/05/10 06:38:07;;;;;;;10.07;3.25;;;19.70;67.90;;;;;;4939697;28;20039;-83
2023/05/10 06:40:33;;;;;;;15.55;3.90;;;19.60;67.90;;;;;;4942962;28;20090;-84
2023/05/10 06:42:59;;;;;;;12.40;4.35;;;19.50;67.80;;;;;;4939995;28;20046;-82
2023/05/10 06:45:25;;;;;;;10.57;3.72;;;19.40;67.70;;;;;;4942345;28;20117;-82
2023/05/10 06:47:51;;;;;;;11.23;3.53;;;19.30;68.10;;;;;;4937207;28;20055;-86
2023/05/10 06:50:17;;;;;;;11.18;4.00;;;19.30;67.80;;;;;;4943571;28;20094;-88
2023/05/10 06:52:43;;;;;;;10.02;3.25;;;19.20;67.80;;;;;;4937895;29;20031;-87
2023/05/10 06:55:09;;;;;;;11.73;3.25;;;19.30;68.00;;;;;;4938205;28;20034;-85
2023/05/10 06:57:35;;;;;;;7.90;3.40;;;19.30;67.80;;;;;;4937807;28;20054;-86
2023/05/10 07:00:03;;;;;;;10.73;3.42;;;19.30;67.60;;;;;;4948201;28;20035;-85
2023/05/10 07:02:29;;;;;;;10.93;3.22;;;19.30;67.60;;;;;;4965106;28;20051;-87
2023/05/10 07:04:56;;;;;;;10.20;3.33;;;19.40;67.60;;;;;;4963687;28;20085;-86
2023/05/10 07:07:22;;;;;;;8.32;3.15;;;19.30;67.30;;;;;;4959376;28;20035;-85
2023/05/10 07:09:49;;;;;;;10.23;3.40;;;19.30;67.30;;;;;;4967744;28;20026;-85
2023/05/10 07:12:15;;;;;;;9.43;3.22;;;19.30;67.30;;;;;;4964192;28;20353;-86
2023/05/10 07:14:41;;;;;;;10.60;2.78;;;19.30;67.20;;;;;;4947827;28;20070;-85
2023/05/10 07:17:08;;;;;;;9.20;3.55;;;19.30;67.10;;;;;;4938945;28;20705;-86
2023/05/10 07:19:35;;;;;;;7.35;3.28;;;19.20;67.00;;;;;;4937067;28;20101;-86
2023/05/10 07:22:02;;;;;;;9.10;3.15;;;19.20;67.10;;;;;;4937599;28;20035;-87
2023/05/10 07:24:28;;;;;;;10.07;3.17;;;19.20;67.10;;;;;;4941798;28;20435;-88
2023/05/10 07:26:54;;;;;;;11.95;4.25;;;19.30;67.10;;;;;;4938494;28;20050;-87
2023/05/10 07:29:20;;;;;;;8.07;2.88;;;19.30;66.90;;;;;;4935135;28;20349;-85
2023/05/10 07:31:46;;;;;;;6.45;2.75;;;19.30;66.80;;;;;;4936895;28;20038;-86
2023/05/10 07:34:12;;;;;;;10.18;3.08;;;19.40;67.00;;;;;;4935018;28;20198;-87
2023/05/10 07:36:38;;;;;;;8.80;3.38;;;19.40;66.90;;;;;;4937112;28;20067;-86
2023/05/10 07:39:04;;;;;;;8.50;2.85;;;19.30;66.80;;;;;;4935283;28;20486;-86
2023/05/10 07:41:30;;;;;;;12.90;4.35;;;19.30;66.80;;;;;;4933588;28;20038;-88
2023/05/10 07:43:56;;;;;;;14.45;4.32;;;19.30;66.90;;;;;;4931206;28;20109;-87
2023/05/10 07:46:22;;;;;;;9.35;3.20;;;19.20;66.70;;;;;;4937492;28;20074;-89
2023/05/10 07:48:48;;;;;;;8.18;3.20;;;19.20;66.80;;;;;;4937270;28;20582;-89
2023/05/10 07:51:13;;;;;;;12.77;3.25;;;19.20;66.80;;;;;;4933733;28;20216;-89
2023/05/10 07:53:40;;;;;;;15.63;4.22;;;19.20;66.80;;;;;;4937241;28;20028;-88
2023/05/10 07:56:29;;;;;;;8.73;2.78;;;19.20;66.80;;;;;;4942445;28;20648;-88
2023/05/10 07:59:06;;;;;;;10.98;3.50;;;19.30;66.80;;;;;;4932905;28;20046;-87
2023/05/10 08:01:33;;;;;;;10.93;3.20;;;19.40;66.70;;;;;;4932939;28;20400;-88
2023/05/10 08:03:59;;;;;;;10.30;3.35;;;19.40;66.60;;;;;;4934191;28;20035;-89
2023/05/10 08:06:27;;;;;;;6.20;2.38;;;19.50;66.80;;;;;;4940362;28;20404;-84
2023/05/10 08:08:55;;;;;;;12.43;3.45;;;19.50;66.80;;;;;;4938491;28;20118;-82
2023/05/10 08:11:21;;;;;;;10.70;2.83;;;19.60;66.90;;;;;;4942584;28;20053;-83
2023/05/10 08:13:48;;;;;;;11.82;4.03;;;19.70;67.00;;;;;;4934676;28;20693;-82
2023/05/10 08:16:15;;;;;;;12.30;3.45;;;19.80;66.90;;;;;;4933751;28;20574;-84
2023/05/10 08:18:41;;;;;;;12.05;3.60;;;19.80;66.70;;;;;;4935425;28;20414;-80
2023/05/10 08:21:07;;;;;;;8.02;2.17;;;19.90;66.90;;;;;;4937398;28;20031;-79
2023/05/10 08:23:33;;;;;;;6.45;2.55;;;20.00;67.10;;;;;;4934430;28;20444;-81
2023/05/10 08:25:59;;;;;;;7.63;3.00;;;20.30;67.60;;;;;;4932449;28;20038;-79
2023/05/10 08:28:25;;;;;;;5.15;2.03;;;20.40;67.60;;;;;;4936783;28;20046;-79
2023/05/10 08:30:51;;;;;;;6.72;2.42;;;20.60;67.70;;;;;;4936675;28;20122;-80
2023/05/10 08:33:18;;;;;;;5.72;1.83;;;20.80;67.70;;;;;;4940546;28;20562;-80
2023/05/10 08:35:44;;;;;;;5.20;1.73;;;21.20;68.00;;;;;;4931139;28;20031;-80
2023/05/10 08:38:10;;;;;;;8.18;2.15;;;21.60;67.90;;;;;;4935377;28;20031;-79
2023/05/10 08:40:43;;;;;;;7.47;2.25;;;22.00;67.60;;;;;;4937414;28;20772;-80
2023/05/10 08:43:11;;;;;;;8.05;2.63;;;22.30;67.10;;;;;;4929622;28;20332;-80
2023/05/10 08:45:42;;;;;;;8.48;2.55;;;22.50;66.80;;;;;;4931166;28;20035;-81
2023/05/10 08:48:10;;;;;;;6.15;2.92;;;22.70;66.40;;;;;;4933490;28;20118;-79
2023/05/10 08:50:38;;;;;;;7.32;2.75;;;22.90;66.40;;;;;;4932854;28;20036;-80
2023/05/10 08:53:06;;;;;;;7.60;2.35;;;23.00;66.10;;;;;;4936976;28;20032;-77
2023/05/10 08:55:33;;;;;;;9.63;3.47;;;23.20;65.90;;;;;;4945612;28;20023;-78
2023/05/10 08:58:03;;;;;;;6.63;3.00;;;23.40;65.70;;;;;;4940426;28;20327;-78
2023/05/10 09:00:30;;;;;;;6.57;2.63;;;23.50;65.30;;;;;;4938902;28;20035;-79
2023/05/10 09:02:58;;;;;;;6.25;2.15;;;23.60;65.30;;;;;;4940715;28;20117;-78
2023/05/10 09:05:24;;;;;;;10.48;3.17;;;23.70;65.10;;;;;;4932965;28;20121;-78
2023/05/10 09:07:50;;;;;;;12.95;3.22;;;23.70;64.90;;;;;;4948501;28;20105;-78
2023/05/10 09:10:16;;;;;;;6.72;2.65;;;23.70;64.70;;;;;;4941296;28;20055;-78
2023/05/10 09:12:43;;;;;;;11.75;3.75;;;23.70;64.60;;;;;;4946424;28;20060;-78
2023/05/10 09:15:10;;;;;;;7.45;2.67;;;23.70;64.40;;;;;;4932732;28;20550;-78
2023/05/10 09:17:38;;;;;;;7.40;2.80;;;23.70;64.20;;;;;;4944808;28;20391;-79
2023/05/10 09:20:04;;;;;;;7.90;3.17;;;23.80;64.20;;;;;;4940227;28;20062;-79
2023/05/10 09:22:31;;;;;;;7.85;2.63;;;23.90;64.10;;;;;;4934588;28;20437;-79
2023/05/10 09:25:10;;;;;;;9.48;2.80;;;23.90;63.90;;;;;;4937645;28;20042;-78
2023/05/10 09:27:38;;;;;;;8.55;2.63;;;23.90;63.60;;;;;;4940959;28;20054;-78
2023/05/10 09:30:05;;;;;;;7.72;2.47;;;24.00;63.70;;;;;;4936065;28;20057;-78
2023/05/10 09:32:42;;;;;;;9.68;3.75;;;23.90;63.40;;;;;;4942154;28;20467;-79
2023/05/10 09:35:18;;;;;;;10.88;2.92;;;23.90;63.30;;;;;;4939630;28;20127;-79
2023/05/10 09:37:47;;;;;;;10.30;3.00;;;23.90;63.50;;;;;;4941005;28;20062;-79
2023/05/10 09:40:15;;;;;;;8.40;2.72;;;24.00;63.20;;;;;;4940611;28;20500;-80
2023/05/10 09:42:51;;;;;;;9.88;3.78;;;24.10;63.00;;;;;;4932747;28;20035;-80
2023/05/10 09:45:17;;;;;;;12.07;3.22;;;24.30;63.00;;;;;;4939147;28;20035;-79
2023/05/10 09:47:43;;;;;;;9.85;3.00;;;24.30;62.60;;;;;;4942028;28;20063;-79
2023/05/10 09:50:09;;;;;;;7.38;2.67;;;24.50;62.70;;;;;;4942115;28;20083;-78
2023/05/10 09:52:52;;;;;;;15.85;4.22;;;24.70;62.60;;;;;;4936166;28;20038;-79
2023/05/10 09:55:23;;;;;;;11.02;3.03;;;24.90;62.20;;;;;;4935793;28;20122;-79
2023/05/10 09:57:57;;;;;;;8.57;2.70;;;25.10;62.10;;;;;;4945057;28;20043;-80
2023/05/10 10:00:24;;;;;;;10.07;2.83;;;25.20;61.70;;;;;;4942170;28;20399;-80
2023/05/10 10:02:59;;;;;;;10.05;3.13;;;25.30;61.30;;;;;;4938325;28;20073;-81
2023/05/10 10:05:33;;;;;;;9.80;2.63;;;25.40;60.70;;;;;;4941014;28;20042;-78
2023/05/10 10:08:00;;;;;;;9.18;2.92;;;25.50;60.50;;;;;;4943555;28;20074;-79
2023/05/10 10:10:27;;;;;;;9.90;3.45;;;25.50;60.40;;;;;;4946263;28;20275;-80
2023/05/10 10:12:54;;;;;;;9.35;3.15;;;25.60;60.80;;;;;;4937873;28;20150;-81
2023/05/10 10:15:23;;;;;;;11.93;3.13;;;25.60;59.90;;;;;;4934830;28;20029;-83
2023/05/10 10:17:50;;;;;;;9.82;3.22;;;25.80;59.70;;;;;;4941403;28;20553;-82
2023/05/10 10:20:17;;;;;;;18.25;4.35;;;25.90;59.40;;;;;;4945530;28;20050;-86
2023/05/10 10:22:45;;;;;;;11.93;3.47;;;26.00;59.00;;;;;;4942090;28;20036;-86
2023/05/10 10:25:14;;;;;;;10.10;3.45;;;26.00;58.80;;;;;;4940083;28;20090;-84
2023/05/10 10:27:51;;;;;;;10.18;2.88;;;26.10;58.60;;;;;;4939930;28;21037;-84
2023/05/10 10:30:30;;;;;;;11.38;3.13;;;26.20;58.20;;;;;;4936388;28;20046;-84
2023/05/10 10:33:12;;;;;;;13.20;3.53;;;26.20;58.20;;;;;;4941190;28;20223;-84
2023/05/10 10:35:39;;;;;;;12.35;3.70;;;26.20;58.20;;;;;;4935274;28;20052;-84
2023/05/10 10:38:08;;;;;;;9.88;3.70;;;26.20;58.20;;;;;;4935216;28;20190;-84
2023/05/10 10:40:34;;;;;;;7.85;2.80;;;26.20;58.00;;;;;;4933887;28;20042;-84
2023/05/10 10:43:21;;;;;;;8.75;3.28;;;26.30;57.90;;;;;;4934479;28;20487;-85
2023/05/10 10:46:23;;;;;;;8.77;2.90;;;26.50;57.50;;;;;;4935003;28;20971;-86
2023/05/10 10:49:09;;;;;;;6.78;2.47;;;26.50;57.20;;;;;;4956286;28;20113;-86
2023/05/10 10:51:39;;;;;;;8.45;2.67;;;26.60;57.10;;;;;;4943085;28;20123;-87
2023/05/10 10:54:11;;;;;;;6.65;2.95;;;26.60;57.20;;;;;;4937551;28;20050;-87
2023/05/10 10:56:38;;;;;;;8.45;3.17;;;26.60;57.00;;;;;;4940877;28;20105;-86
2023/05/10 10:59:04;;;;;;;11.35;3.05;;;26.60;57.00;;;;;;4934113;28;20213;-88
2023/05/10 11:01:36;;;;;;;9.43;2.75;;;26.70;56.80;;;;;;4939924;28;20592;-86
2023/05/10 11:04:05;;;;;;;8.02;2.40;;;26.80;56.50;;;;;;4941352;28;20347;-85
2023/05/10 11:06:33;;;;;;;8.27;3.33;;;27.00;56.40;;;;;;4937273;28;20495;-84
2023/05/10 11:09:09;;;;;;;8.85;3.13;;;27.20;56.20;;;;;;4932633;28;20027;-85
2023/05/10 11:11:47;;;;;;;8.35;3.20;;;27.40;55.90;;;;;;4946371;28;20415;-83
2023/05/10 11:14:13;;;;;;;7.07;2.65;;;27.50;55.40;;;;;;4934966;28;20031;-83
2023/05/10 11:16:42;;;;;;;6.40;3.00;;;27.70;55.30;;;;;;4935180;28;20070;-83
2023/05/10 11:19:11;;;;;;;7.93;2.78;;;27.90;55.10;;;;;;4933649;28;20531;-84
2023/05/10 11:21:53;;;;;;;7.30;2.53;;;28.10;54.80;;;;;;4938468;28;20567;-85
2023/05/10 11:24:22;;;;;;;7.25;2.30;;;28.20;54.40;;;;;;4934552;28;20031;-83
2023/05/10 11:26:51;;;;;;;5.72;2.45;;;28.40;54.40;;;;;;4953267;28;20044;-84
2023/05/10 11:29:17;;;;;;;8.00;2.72;;;28.60;54.00;;;;;;4936100;28;20027;-84
2023/05/10 11:31:48;;;;;;;7.85;2.70;;;28.80;53.70;;;;;;4938126;28;20125;-85
2023/05/10 11:34:33;;;;;;;5.90;2.10;;;29.00;53.20;;;;;;4936700;28;20038;-86
2023/05/10 11:37:00;;;;;;;5.18;2.60;;;29.20;52.80;;;;;;4938101;28;20134;-87
2023/05/10 11:39:27;;;;;;;7.53;2.38;;;29.40;52.80;;;;;;4939520;28;20050;-84
2023/05/10 11:41:53;;;;;;;5.78;2.63;;;29.40;52.40;;;;;;4935239;28;20454;-86
2023/05/10 11:44:19;;;;;;;6.78;2.03;;;29.60;52.20;;;;;;4935641;28;20041;-85
2023/05/10 11:46:45;;;;;;;5.10;1.73;;;29.70;52.00;;;;;;4935810;28;20047;-84
2023/05/10 11:49:13;;;;;;;4.22;1.90;;;29.70;51.70;;;;;;4938615;28;20570;-85
2023/05/10 11:51:39;;;;;;;5.65;2.22;;;29.90;51.50;;;;;;4937542;29;20132;-85
2023/05/10 11:54:08;;;;;;;5.82;2.45;;;30.00;51.30;;;;;;4946554;28;20031;-85
2023/05/10 11:56:34;;;;;;;5.53;2.05;;;30.30;51.00;;;;;;4937299;28;20066;-87
2023/05/10 11:59:02;;;;;;;6.13;2.42;;;30.50;50.60;;;;;;4938299;28;20028;-85
2023/05/10 12:01:28;;;;;;;4.40;1.90;;;30.70;50.20;;;;;;4938210;28;20558;-84
2023/05/10 12:03:59;;;;;;;3.65;1.58;;;30.80;50.00;;;;;;4934679;28;20143;-81
2023/05/10 12:06:28;;;;;;;4.35;2.05;;;30.90;49.80;;;;;;4936534;28;20046;-81
2023/05/10 12:08:54;;;;;;;4.43;1.73;;;30.90;49.70;;;;;;4933330;28;20593;-85
2023/05/10 12:11:21;;;;;;;9.63;2.28;;;30.90;49.70;;;;;;4935327;28;20085;-84
2023/05/10 12:13:47;;;;;;;6.70;1.98;;;30.90;50.00;;;;;;4938794;28;20043;-85
2023/05/10 12:16:17;;;;;;;5.28;1.98;;;30.90;49.10;;;;;;4926987;28;20032;-85
2023/05/10 12:18:44;;;;;;;5.68;2.15;;;30.90;49.00;;;;;;4939936;28;20043;-84
2023/05/10 12:21:13;;;;;;;3.03;1.48;;;30.80;49.00;;;;;;4941987;28;20039;-84
2023/05/10 12:23:39;;;;;;;7.55;2.53;;;30.70;49.00;;;;;;4934920;28;20282;-82
2023/05/10 12:26:06;;;;;;;4.60;1.58;;;30.60;49.00;;;;;;4963960;28;20066;-85
2023/05/10 12:28:33;;;;;;;7.18;2.38;;;30.60;49.10;;;;;;4967821;28;20035;-84
2023/05/10 12:30:59;;;;;;;2.83;1.30;;;30.50;49.00;;;;;;4969422;28;20035;-85
2023/05/10 12:33:25;;;;;;;5.72;1.98;;;30.60;49.00;;;;;;4971253;28;20067;-84
2023/05/10 12:35:53;;;;;;;5.18;2.08;;;30.60;48.50;;;;;;4961111;28;20016;-85
2023/05/10 12:38:44;;;;;;;6.00;1.88;;;30.50;48.40;;;;;;4965791;28;20106;-85
2023/05/10 12:41:11;;;;;;;4.13;1.70;;;30.30;48.20;;;;;;4967203;28;20039;-85
2023/05/10 12:43:38;;;;;;;4.93;2.55;;;30.10;48.60;;;;;;4962700;28;20039;-86
2023/05/10 12:46:08;;;;;;;5.55;1.85;;;30.00;48.80;;;;;;4944970;28;20118;-84
2023/05/10 12:48:35;;;;;;;3.22;1.52;;;29.90;48.90;;;;;;4941397;28;20615;-85